sensor_id;sensor_type;location;lat;lon;timestamp;pressure;altitude;pressure_sealevel;temperature;humidity
85768;BME280;76705;49.006;12.078;2024-03-02T00:02:06;96523.94;;;18.97;38.37
85768;BME280;76705;49.006;12.078;2024-03-02T00:04:44;96523.94;;;18.97;38.34
85768;BME280;76705;49.006;12.078;2024-03-02T00:07:23;96520.47;;;18.96;37.78
85768;BME280;76705;49.006;12.078;2024-03-02T00:10:03;96516.41;;;18.94;38.50
85768;BME280;76705;49.006;12.078;2024-03-02T00:12:45;96523.38;;;18.95;38.48
85768;BME280;76705;49.006;12.078;2024-03-02T00:15:35;96523.66;;;18.93;37.97
85768;BME280;76705;49.006;12.078;2024-03-02T00:18:18;96520.19;;;18.93;37.86
85768;BME280;76705;49.006;12.078;2024-03-02T00:20:56;96518.03;;;18.90;38.47
85768;BME280;76705;49.006;12.078;2024-03-02T00:23:36;96522.56;;;18.89;38.50
85768;BME280;76705;49.006;12.078;2024-03-02T00:26:14;96518.84;;;18.90;37.77
85768;BME280;76705;49.006;12.078;2024-03-02T00:28:54;96527.09;;;18.89;38.34
85768;BME280;76705;49.006;12.078;2024-03-02T00:31:33;96518.25;;;18.88;38.30
85768;BME280;76705;49.006;12.078;2024-03-02T00:34:10;96519.34;;;18.87;37.90
85768;BME280;76705;49.006;12.078;2024-03-02T00:36:51;96528.94;;;18.88;38.55
85768;BME280;76705;49.006;12.078;2024-03-02T00:39:30;96521.22;;;18.87;38.49
85768;BME280;76705;49.006;12.078;2024-03-02T00:42:07;96516.09;;;18.85;37.89
85768;BME280;76705;49.006;12.078;2024-03-02T00:44:46;96521.44;;;18.85;38.27
85768;BME280;76705;49.006;12.078;2024-03-02T00:47:25;96517.19;;;18.84;38.47
85768;BME280;76705;49.006;12.078;2024-03-02T00:50:03;96516.38;;;18.84;38.52
85768;BME280;76705;49.006;12.078;2024-03-02T00:52:41;96511.03;;;18.84;38.51
85768;BME280;76705;49.006;12.078;2024-03-02T00:55:20;96518.22;;;18.83;37.84
85768;BME280;76705;49.006;12.078;2024-03-02T00:57:58;96512.06;;;18.83;38.49
85768;BME280;76705;49.006;12.078;2024-03-02T01:00:36;96515.81;;;18.82;38.00
85768;BME280;76705;49.006;12.078;2024-03-02T01:03:14;96509.69;;;18.81;37.95
85768;BME280;76705;49.006;12.078;2024-03-02T01:05:52;96510.47;;;18.82;38.68
85768;BME280;76705;49.006;12.078;2024-03-02T01:08:30;96507.00;;;18.81;38.26
85768;BME280;76705;49.006;12.078;2024-03-02T01:11:10;96508.06;;;18.80;38.17
85768;BME280;76705;49.006;12.078;2024-03-02T01:13:47;96501.91;;;18.80;38.53
85768;BME280;76705;49.006;12.078;2024-03-02T01:16:25;96501.09;;;18.79;38.45
85768;BME280;76705;49.006;12.078;2024-03-02T01:19:03;96511.78;;;18.79;38.06
85768;BME280;76705;49.006;12.078;2024-03-02T01:21:41;96501.91;;;18.80;38.27
85768;BME280;76705;49.006;12.078;2024-03-02T01:24:18;96504.84;;;18.78;37.94
85768;BME280;76705;49.006;12.078;2024-03-02T01:26:58;96502.16;;;18.78;38.18
85768;BME280;76705;49.006;12.078;2024-03-02T01:29:35;96508.56;;;18.77;38.53
85768;BME280;76705;49.006;12.078;2024-03-02T01:32:13;96497.88;;;18.77;38.01
85768;BME280;76705;49.006;12.078;2024-03-02T01:34:51;96501.34;;;18.78;38.40
85768;BME280;76705;49.006;12.078;2024-03-02T01:37:29;96497.88;;;18.77;38.22
85768;BME280;76705;49.006;12.078;2024-03-02T01:40:07;96506.72;;;18.78;38.41
85768;BME280;76705;49.006;12.078;2024-03-02T01:42:47;96500.56;;;18.77;38.48
85768;BME280;76705;49.006;12.078;2024-03-02T01:45:25;96498.94;;;18.76;38.66
85768;BME280;76705;49.006;12.078;2024-03-02T01:48:03;96502.41;;;18.77;38.69
85768;BME280;76705;49.006;12.078;2024-03-02T01:50:42;96497.06;;;18.77;38.52
85768;BME280;76705;49.006;12.078;2024-03-02T01:53:19;96496.25;;;18.76;38.35
85768;BME280;76705;49.006;12.078;2024-03-02T01:55:57;96500.78;;;18.76;38.55
85768;BME280;76705;49.006;12.078;2024-03-02T01:58:36;96500.00;;;18.75;38.32
85768;BME280;76705;49.006;12.078;2024-03-02T02:01:14;96506.94;;;18.76;38.54
85768;BME280;76705;49.006;12.078;2024-03-02T02:03:52;96505.34;;;18.75;38.66
85768;BME280;76705;49.006;12.078;2024-03-02T02:06:30;96501.59;;;18.76;38.27
85768;BME280;76705;49.006;12.078;2024-03-02T02:09:07;96506.13;;;18.76;38.47
85768;BME280;76705;49.006;12.078;2024-03-02T02:11:46;96502.91;;;18.74;38.54
85768;BME280;76705;49.006;12.078;2024-03-02T02:14:25;96494.91;;;18.74;38.57
85768;BME280;76705;49.006;12.078;2024-03-02T02:17:04;96494.91;;;18.74;38.15
85768;BME280;76705;49.006;12.078;2024-03-02T02:19:42;96495.72;;;18.74;38.42
85768;BME280;76705;49.006;12.078;2024-03-02T02:22:21;96494.09;;;18.73;38.39
85768;BME280;76705;49.006;12.078;2024-03-02T02:24:59;96502.91;;;18.74;38.24
85768;BME280;76705;49.006;12.078;2024-03-02T02:27:37;96501.06;;;18.74;38.57
85768;BME280;76705;49.006;12.078;2024-03-02T02:30:18;96491.41;;;18.73;38.67
85768;BME280;76705;49.006;12.078;2024-03-02T02:32:56;96497.56;;;18.74;38.10
85768;BME280;76705;49.006;12.078;2024-03-02T02:35:34;96485.53;;;18.71;38.27
85768;BME280;76705;49.006;12.078;2024-03-02T02:38:13;96495.19;;;18.72;38.68
85768;BME280;76705;49.006;12.078;2024-03-02T02:40:51;96493.56;;;18.71;38.65
85768;BME280;76705;49.006;12.078;2024-03-02T02:43:29;96482.88;;;18.71;38.65
85768;BME280;76705;49.006;12.078;2024-03-02T02:46:06;96482.88;;;18.71;38.54
85768;BME280;76705;49.006;12.078;2024-03-02T02:48:44;96479.38;;;18.71;38.58
85768;BME280;76705;49.006;12.078;2024-03-02T02:51:22;96480.44;;;18.70;38.64
85768;BME280;76705;49.006;12.078;2024-03-02T02:54:02;96480.72;;;18.68;38.59
85768;BME280;76705;49.006;12.078;2024-03-02T02:56:40;96476.41;;;18.67;38.59
85768;BME280;76705;49.006;12.078;2024-03-02T02:59:18;96475.59;;;18.67;38.58
85768;BME280;76705;49.006;12.078;2024-03-02T03:01:56;96476.69;;;18.66;38.55
85768;BME280;76705;49.006;12.078;2024-03-02T03:04:33;96480.41;;;18.65;37.94
85768;BME280;76705;49.006;12.078;2024-03-02T03:07:11;96482.25;;;18.64;38.13
85768;BME280;76705;49.006;12.078;2024-03-02T03:09:50;96481.72;;;18.62;38.61
85768;BME280;76705;49.006;12.078;2024-03-02T03:12:28;96490.78;;;18.61;37.99
85768;BME280;76705;49.006;12.078;2024-03-02T03:15:07;96484.63;;;18.61;38.48
85768;BME280;76705;49.006;12.078;2024-03-02T03:17:45;96484.63;;;18.61;38.14
85768;BME280;76705;49.006;12.078;2024-03-02T03:20:24;96483.06;;;18.60;38.53
85768;BME280;76705;49.006;12.078;2024-03-02T03:23:02;96488.41;;;18.60;37.86
85768;BME280;76705;49.006;12.078;2024-03-02T03:25:43;96483.88;;;18.60;38.21
85768;BME280;76705;49.006;12.078;2024-03-02T03:28:21;96480.09;;;18.61;38.15
85768;BME280;76705;49.006;12.078;2024-03-02T03:30:59;96486.81;;;18.64;38.39
85768;BME280;76705;49.006;12.078;2024-03-02T03:33:37;96479.34;;;18.66;38.27
85768;BME280;76705;49.006;12.078;2024-03-02T03:36:14;96478.84;;;18.69;38.70
85768;BME280;76705;49.006;12.078;2024-03-02T03:38:52;96481.25;;;18.70;37.82
85768;BME280;76705;49.006;12.078;2024-03-02T03:41:31;96479.38;;;18.71;38.70
85768;BME280;76705;49.006;12.078;2024-03-02T03:44:09;96480.19;;;18.71;38.22
85768;BME280;76705;49.006;12.078;2024-03-02T03:46:47;96483.41;;;18.73;38.20
85768;BME280;76705;49.006;12.078;2024-03-02T03:49:25;96474.84;;;18.71;38.19
85768;BME280;76705;49.006;12.078;2024-03-02T03:52:03;96479.16;;;18.72;38.03
85768;BME280;76705;49.006;12.078;2024-03-02T03:54:41;96479.91;;;18.73;38.66
85768;BME280;76705;49.006;12.078;2024-03-02T03:57:21;96482.59;;;18.73;38.67
85768;BME280;76705;49.006;12.078;2024-03-02T03:59:59;96484.47;;;18.72;38.46
85768;BME280;76705;49.006;12.078;2024-03-02T04:02:37;96481.81;;;18.72;38.68
85768;BME280;76705;49.006;12.078;2024-03-02T04:05:15;96485.53;;;18.71;38.17
85768;BME280;76705;49.006;12.078;2024-03-02T04:07:53;96492.75;;;18.71;38.57
85768;BME280;76705;49.006;12.078;2024-03-02T04:10:31;96490.34;;;18.69;38.59
85768;BME280;76705;49.006;12.078;2024-03-02T04:13:10;96492.22;;;18.69;38.37
85768;BME280;76705;49.006;12.078;2024-03-02T04:15:48;96492.22;;;18.69;37.97
85768;BME280;76705;49.006;12.078;2024-03-02T04:18:26;96492.44;;;18.67;38.77
85768;BME280;76705;49.006;12.078;2024-03-02T04:21:04;96500.22;;;18.69;38.65
85768;BME280;76705;49.006;12.078;2024-03-02T04:23:41;96489.53;;;18.69;38.52
85768;BME280;76705;49.006;12.078;2024-03-02T04:26:19;96498.59;;;18.68;37.91
85768;BME280;76705;49.006;12.078;2024-03-02T04:29:01;96501.28;;;18.68;38.22
85768;BME280;76705;49.006;12.078;2024-03-02T04:31:39;96503.13;;;18.67;37.98
85768;BME280;76705;49.006;12.078;2024-03-02T04:34:17;96506.38;;;18.69;38.21
85768;BME280;76705;49.006;12.078;2024-03-02T04:36:55;96511.72;;;18.69;38.02
85768;BME280;76705;49.006;12.078;2024-03-02T04:39:34;96508.78;;;18.71;38.69
85768;BME280;76705;49.006;12.078;2024-03-02T04:42:12;96503.44;;;18.71;38.45
85768;BME280;76705;49.006;12.078;2024-03-02T04:44:51;96514.94;;;18.71;38.58
85768;BME280;76705;49.006;12.078;2024-03-02T04:47:29;96510.41;;;18.72;38.52
85768;BME280;76705;49.006;12.078;2024-03-02T04:50:07;96516.56;;;18.72;38.01
85768;BME280;76705;49.006;12.078;2024-03-02T04:52:45;96521.09;;;18.72;38.25
85768;BME280;76705;49.006;12.078;2024-03-02T04:55:23;96517.59;;;18.71;38.70
85768;BME280;76705;49.006;12.078;2024-03-02T04:58:07;96513.06;;;18.72;38.59
85768;BME280;76705;49.006;12.078;2024-03-02T05:00:46;96521.91;;;18.72;38.64
85768;BME280;76705;49.006;12.078;2024-03-02T05:03:24;96517.34;;;18.73;38.21
85768;BME280;76705;49.006;12.078;2024-03-02T05:06:02;96520.00;;;18.73;38.52
85768;BME280;76705;49.006;12.078;2024-03-02T05:08:40;96516.56;;;18.72;38.72
85768;BME280;76705;49.006;12.078;2024-03-02T05:11:18;96528.03;;;18.73;38.44
85768;BME280;76705;49.006;12.078;2024-03-02T05:14:14;96525.63;;;18.71;38.10
85768;BME280;76705;49.006;12.078;2024-03-02T05:16:54;96522.94;;;18.71;38.60
85768;BME280;76705;49.006;12.078;2024-03-02T05:19:31;96531.78;;;18.72;38.02
85768;BME280;76705;49.006;12.078;2024-03-02T05:22:09;96524.00;;;18.70;38.27
85768;BME280;76705;49.006;12.078;2024-03-02T05:24:47;96531.22;;;18.70;38.32
85768;BME280;76705;49.006;12.078;2024-03-02T05:27:25;96530.16;;;18.71;38.23
85768;BME280;76705;49.006;12.078;2024-03-02T05:30:03;96534.69;;;18.70;38.57
85768;BME280;76705;49.006;12.078;2024-03-02T05:32:45;96532.84;;;18.71;38.24
85768;BME280;76705;49.006;12.078;2024-03-02T05:35:23;96532.84;;;18.71;38.67
85768;BME280;76705;49.006;12.078;2024-03-02T05:38:00;96530.16;;;18.71;38.48
85768;BME280;76705;49.006;12.078;2024-03-02T05:40:38;96535.50;;;18.71;38.48
85768;BME280;76705;49.006;12.078;2024-03-02T05:43:16;96534.69;;;18.70;38.48
85768;BME280;76705;49.006;12.078;2024-03-02T05:45:54;96537.38;;;18.70;38.19
85768;BME280;76705;49.006;12.078;2024-03-02T05:48:33;96541.91;;;18.70;37.94
85768;BME280;76705;49.006;12.078;2024-03-02T05:51:12;96540.84;;;18.71;38.65
85768;BME280;76705;49.006;12.078;2024-03-02T05:53:49;96538.47;;;18.74;39.38
85768;BME280;76705;49.006;12.078;2024-03-02T05:56:27;96546.78;;;18.78;38.86
85768;BME280;76705;49.006;12.078;2024-03-02T05:59:05;96546.28;;;18.81;39.33
85768;BME280;76705;49.006;12.078;2024-03-02T06:01:50;96554.50;;;17.72;40.18
85768;BME280;76705;49.006;12.078;2024-03-02T06:04:30;96552.22;;;16.71;41.88
85768;BME280;76705;49.006;12.078;2024-03-02T06:07:08;96557.78;;;16.86;41.78
85768;BME280;76705;49.006;12.078;2024-03-02T06:09:45;96561.91;;;17.48;41.02
85768;BME280;76705;49.006;12.078;2024-03-02T06:12:26;96562.88;;;17.81;40.32
85768;BME280;76705;49.006;12.078;2024-03-02T06:15:04;96556.16;;;18.00;39.89
85768;BME280;76705;49.006;12.078;2024-03-02T06:17:42;96557.41;;;18.14;39.20
85768;BME280;76705;49.006;12.078;2024-03-02T06:20:21;96551.09;;;18.25;39.05
85768;BME280;76705;49.006;12.078;2024-03-02T06:22:59;96557.59;;;18.34;38.78
85768;BME280;76705;49.006;12.078;2024-03-02T06:25:36;96564.09;;;18.43;38.83
85768;BME280;76705;49.006;12.078;2024-03-02T06:28:14;96555.09;;;18.49;39.16
85768;BME280;76705;49.006;12.078;2024-03-02T06:30:52;96558.63;;;18.55;38.52
85768;BME280;76705;49.006;12.078;2024-03-02T06:33:30;96561.59;;;18.59;38.80
85768;BME280;76705;49.006;12.078;2024-03-02T06:36:09;96560.84;;;18.63;39.03
85768;BME280;76705;49.006;12.078;2024-03-02T06:38:49;96555.78;;;18.67;38.96
85768;BME280;76705;49.006;12.078;2024-03-02T06:41:26;96556.06;;;18.70;38.91
85768;BME280;76705;49.006;12.078;2024-03-02T06:44:04;96555.03;;;18.71;38.60
85768;BME280;76705;49.006;12.078;2024-03-02T06:46:44;96552.91;;;18.73;38.30
85768;BME280;76705;49.006;12.078;2024-03-02T06:49:22;96561.47;;;18.75;38.94
85768;BME280;76705;49.006;12.078;2024-03-02T06:52:01;96561.22;;;18.77;38.98
85768;BME280;76705;49.006;12.078;2024-03-02T06:54:39;96560.16;;;18.78;38.80
85768;BME280;76705;49.006;12.078;2024-03-02T06:57:17;96562.03;;;18.77;38.42
85768;BME280;76705;49.006;12.078;2024-03-02T06:59:54;96564.69;;;18.77;38.87
85768;BME280;76705;49.006;12.078;2024-03-02T07:02:35;96563.66;;;18.78;38.89
85768;BME280;76705;49.006;12.078;2024-03-02T07:05:14;96564.44;;;18.79;38.29
85768;BME280;76705;49.006;12.078;2024-03-02T07:07:53;96562.56;;;18.79;38.72
85768;BME280;76705;49.006;12.078;2024-03-02T07:10:31;96567.91;;;18.79;38.77
85768;BME280;76705;49.006;12.078;2024-03-02T07:13:08;96564.44;;;18.79;38.72
85768;BME280;76705;49.006;12.078;2024-03-02T07:15:46;96565.81;;;18.81;38.33
85768;BME280;76705;49.006;12.078;2024-03-02T07:18:50;96569.53;;;18.80;38.20
85768;BME280;76705;49.006;12.078;2024-03-02T07:21:29;96568.72;;;18.80;38.06
85768;BME280;76705;49.006;12.078;2024-03-02T07:24:08;96569.53;;;18.80;38.74
85768;BME280;76705;49.006;12.078;2024-03-02T07:26:50;96567.91;;;18.79;38.01
85768;BME280;76705;49.006;12.078;2024-03-02T07:29:29;96579.41;;;18.80;38.56
85768;BME280;76705;49.006;12.078;2024-03-02T07:32:07;96582.91;;;18.80;38.51
85768;BME280;76705;49.006;12.078;2024-03-02T07:34:46;96585.81;;;18.79;38.00
85768;BME280;76705;49.006;12.078;2024-03-02T07:37:23;96590.09;;;18.80;38.21
85768;BME280;76705;49.006;12.078;2024-03-02T07:40:03;96591.72;;;18.81;38.35
85768;BME280;76705;49.006;12.078;2024-03-02T07:42:41;96592.53;;;18.81;38.37
85768;BME280;76705;49.006;12.078;2024-03-02T07:45:18;96594.94;;;18.83;38.53
85768;BME280;76705;49.006;12.078;2024-03-02T07:47:56;96599.25;;;18.84;38.04
85768;BME280;76705;49.006;12.078;2024-03-02T07:50:34;96605.13;;;18.86;37.98
85768;BME280;76705;49.006;12.078;2024-03-02T07:53:13;96605.94;;;18.86;38.41
85768;BME280;76705;49.006;12.078;2024-03-02T07:55:53;96609.97;;;18.89;38.37
85768;BME280;76705;49.006;12.078;2024-03-02T07:58:30;96607.06;;;18.90;38.20
85768;BME280;76705;49.006;12.078;2024-03-02T08:01:08;96612.41;;;18.90;37.74
85768;BME280;76705;49.006;12.078;2024-03-02T08:03:46;96606.78;;;18.92;38.02
85768;BME280;76705;49.006;12.078;2024-03-02T08:06:28;96619.91;;;18.93;38.36
85768;BME280;76705;49.006;12.078;2024-03-02T08:09:06;96616.16;;;18.94;38.43
85768;BME280;76705;49.006;12.078;2024-03-02T08:11:48;96632.19;;;18.94;38.37
85768;BME280;76705;49.006;12.078;2024-03-02T08:14:26;96623.13;;;18.95;38.32
85768;BME280;76705;49.006;12.078;2024-03-02T08:17:04;96627.97;;;18.98;38.83
85768;BME280;76705;49.006;12.078;2024-03-02T08:19:47;96629.09;;;19.02;38.88
85768;BME280;76705;49.006;12.078;2024-03-02T08:22:26;96635.22;;;19.03;38.20
85768;BME280;76705;49.006;12.078;2024-03-02T08:25:04;96634.16;;;19.04;38.05
85768;BME280;76705;49.006;12.078;2024-03-02T08:27:43;96633.09;;;19.05;38.23
85768;BME280;76705;49.006;12.078;2024-03-02T08:30:21;96634.47;;;19.07;38.94
85768;BME280;76705;49.006;12.078;2024-03-02T08:32:59;96625.72;;;19.17;39.71
85768;BME280;76705;49.006;12.078;2024-03-02T08:35:37;96632.66;;;19.18;39.48
85768;BME280;76705;49.006;12.078;2024-03-02T08:38:15;96631.88;;;19.18;39.02
85768;BME280;76705;49.006;12.078;2024-03-02T08:40:53;96641.75;;;19.17;38.65
85768;BME280;76705;49.006;12.078;2024-03-02T08:43:32;96633.75;;;19.17;38.91
85768;BME280;76705;49.006;12.078;2024-03-02T08:46:10;96637.47;;;19.16;39.08
85768;BME280;76705;49.006;12.078;2024-03-02T08:48:48;96627.59;;;19.17;39.09
85768;BME280;76705;49.006;12.078;2024-03-02T08:51:26;96633.75;;;19.17;39.39
85768;BME280;76705;49.006;12.078;2024-03-02T08:54:04;96636.97;;;19.19;39.40
85768;BME280;76705;49.006;12.078;2024-03-02T08:56:43;96635.09;;;19.20;39.11
85768;BME280;76705;49.006;12.078;2024-03-02T08:59:22;96641.78;;;19.22;39.24
85768;BME280;76705;49.006;12.078;2024-03-02T09:02:00;96639.94;;;19.23;39.63
85768;BME280;76705;49.006;12.078;2024-03-02T09:04:37;96642.34;;;19.24;39.44
85768;BME280;76705;49.006;12.078;2024-03-02T09:07:15;96639.16;;;19.27;39.16
85768;BME280;76705;49.006;12.078;2024-03-02T09:09:53;96635.19;;;19.30;39.20
85768;BME280;76705;49.006;12.078;2024-03-02T09:12:31;96638.13;;;19.33;39.33
85768;BME280;76705;49.006;12.078;2024-03-02T09:15:11;96639.50;;;19.36;39.91
85768;BME280;76705;49.006;12.078;2024-03-02T09:17:48;96640.03;;;19.38;39.16
85768;BME280;76705;49.006;12.078;2024-03-02T09:20:26;96646.22;;;19.38;39.37
85768;BME280;76705;49.006;12.078;2024-03-02T09:23:04;96647.59;;;19.41;39.16
85768;BME280;76705;49.006;12.078;2024-03-02T09:25:42;96641.72;;;19.44;39.72
85768;BME280;76705;49.006;12.078;2024-03-02T09:28:20;96640.41;;;19.46;39.07
85768;BME280;76705;49.006;12.078;2024-03-02T09:30:59;96650.59;;;19.49;39.65
85768;BME280;76705;49.006;12.078;2024-03-02T09:33:38;96653.84;;;19.51;39.49
85768;BME280;76705;49.006;12.078;2024-03-02T09:36:17;96647.41;;;19.52;39.35
85768;BME280;76705;49.006;12.078;2024-03-02T09:38:55;96648.22;;;19.53;39.52
85768;BME280;76705;49.006;12.078;2024-03-02T09:41:33;96635.88;;;19.52;39.30
85768;BME280;76705;49.006;12.078;2024-03-02T09:44:11;96638.03;;;19.50;38.68
85768;BME280;76705;49.006;12.078;2024-03-02T09:46:50;96643.38;;;19.50;38.83
85768;BME280;76705;49.006;12.078;2024-03-02T09:49:28;96634.53;;;19.49;39.09
85768;BME280;76705;49.006;12.078;2024-03-02T09:52:06;96643.66;;;19.48;38.84
85768;BME280;76705;49.006;12.078;2024-03-02T09:54:47;96639.88;;;19.49;38.15
85768;BME280;76705;49.006;12.078;2024-03-02T09:57:24;96636.41;;;19.49;38.28
85768;BME280;76705;49.006;12.078;2024-03-02T10:00:03;96638.28;;;19.48;38.64
85768;BME280;76705;49.006;12.078;2024-03-02T10:02:43;96632.13;;;19.48;38.12
85768;BME280;76705;49.006;12.078;2024-03-02T10:05:25;96643.88;;;19.47;38.56
85768;BME280;76705;49.006;12.078;2024-03-02T10:08:04;96638.53;;;19.47;38.15
85768;BME280;76705;49.006;12.078;2024-03-02T10:10:43;96636.13;;;19.45;38.38
85768;BME280;76705;49.006;12.078;2024-03-02T10:13:21;96628.09;;;19.45;38.70
85768;BME280;76705;49.006;12.078;2024-03-02T10:16:06;96638.00;;;19.45;37.93
85768;BME280;76705;49.006;12.078;2024-03-02T10:18:50;96629.16;;;19.44;38.51
85768;BME280;76705;49.006;12.078;2024-03-02T10:21:27;96629.97;;;19.45;38.94
85768;BME280;76705;49.006;12.078;2024-03-02T10:24:06;96629.69;;;19.46;39.06
85768;BME280;76705;49.006;12.078;2024-03-02T10:26:44;96635.63;;;19.48;38.80
